createdAt,value
2022-12-14T00:01:27.059Z,3.50
2022-12-14T00:03:54.926Z,3.50
2022-12-14T00:06:24.176Z,3.50
2022-12-14T00:08:52.985Z,3.50
2022-12-14T00:11:20.131Z,3.50
2022-12-14T00:13:49.027Z,3.50
2022-12-14T00:16:18.016Z,3.50
2022-12-14T00:18:48.808Z,3.50
2022-12-14T00:21:15.703Z,3.60
2022-12-14T00:23:45.187Z,3.60
2022-12-14T00:26:17.112Z,3.60
2022-12-14T00:28:45.166Z,3.60
2022-12-14T00:31:12.986Z,3.60
2022-12-14T00:33:40.717Z,3.60
2022-12-14T00:36:09.586Z,3.70
2022-12-14T00:38:37.168Z,3.70
2022-12-14T00:41:05.034Z,3.70
2022-12-14T00:43:32.285Z,3.70
2022-12-14T00:45:59.203Z,3.70
2022-12-14T00:48:27.205Z,3.70
2022-12-14T00:50:55.676Z,3.70
2022-12-14T00:53:24.416Z,3.70
2022-12-14T00:55:52.100Z,3.70
2022-12-14T00:58:21.141Z,3.70
2022-12-14T01:00:58.236Z,3.70
2022-12-14T01:03:25.656Z,3.80
2022-12-14T01:05:52.692Z,3.80
2022-12-14T01:08:20.686Z,3.80
2022-12-14T01:10:47.785Z,3.80
2022-12-14T01:13:14.603Z,3.80
2022-12-14T01:15:41.788Z,3.80
2022-12-14T01:18:08.733Z,3.80
2022-12-14T01:20:36.414Z,3.80
2022-12-14T01:23:03.235Z,3.70
2022-12-14T01:25:30.116Z,3.70
2022-12-14T01:27:56.935Z,3.70
2022-12-14T01:30:23.872Z,3.70
2022-12-14T01:32:50.694Z,3.70
2022-12-14T01:35:17.608Z,3.70
2022-12-14T01:37:44.480Z,3.70
2022-12-14T01:40:11.710Z,3.70
2022-12-14T01:42:38.672Z,3.70
2022-12-14T01:45:06.600Z,3.70
2022-12-14T01:47:46.948Z,3.70
2022-12-14T01:50:26.103Z,3.70
2022-12-14T01:52:58.961Z,3.70
2022-12-14T01:55:37.774Z,3.70
2022-12-14T01:58:15.382Z,3.70
2022-12-14T02:00:43.454Z,3.70
2022-12-14T02:03:33.721Z,3.70
2022-12-14T02:06:06.370Z,3.60
2022-12-14T02:08:34.022Z,3.60
2022-12-14T02:11:02.969Z,3.60
2022-12-14T02:13:36.579Z,3.60
2022-12-14T02:16:03.880Z,3.60
2022-12-14T02:18:32.583Z,3.60
2022-12-14T02:21:02.389Z,3.60
2022-12-14T02:24:17.328Z,3.60
2022-12-14T02:27:08.456Z,3.60
2022-12-14T02:30:04.235Z,3.60
2022-12-14T02:32:49.272Z,3.60
2022-12-14T02:35:39.081Z,3.60
2022-12-14T02:38:23.398Z,3.60
2022-12-14T02:40:52.829Z,3.60
2022-12-14T02:43:31.731Z,3.60
2022-12-14T02:46:13.365Z,3.60
2022-12-14T02:48:48.022Z,3.60
2022-12-14T02:51:26.317Z,3.60
2022-12-14T02:53:53.054Z,3.50
2022-12-14T02:56:25.702Z,3.50
2022-12-14T02:58:53.687Z,3.50
2022-12-14T03:01:25.148Z,3.50
2022-12-14T03:03:52.311Z,3.50
2022-12-14T03:06:27.301Z,3.60
2022-12-14T03:09:17.543Z,3.60
2022-12-14T03:11:47.101Z,3.60
2022-12-14T03:14:23.133Z,3.60
2022-12-14T03:16:51.954Z,3.60
2022-12-14T03:19:25.651Z,3.60
2022-12-14T03:22:00.034Z,3.60
2022-12-14T03:24:35.834Z,3.70
2022-12-14T03:27:12.860Z,3.60
2022-12-14T03:29:46.865Z,3.70
2022-12-14T03:32:15.335Z,3.60
2022-12-14T03:34:52.663Z,3.60
2022-12-14T03:37:53.131Z,3.60
2022-12-14T03:40:30.562Z,3.60
2022-12-14T03:43:13.375Z,3.60
2022-12-14T03:45:47.099Z,3.60
2022-12-14T03:48:39.143Z,3.60
2022-12-14T03:51:34.216Z,3.60
2022-12-14T03:54:12.820Z,3.60
2022-12-14T03:56:55.483Z,3.60
2022-12-14T03:59:22.263Z,3.60
2022-12-14T04:01:49.382Z,3.50
2022-12-14T04:04:27.444Z,3.60
2022-12-14T04:07:20.795Z,3.50
2022-12-14T04:09:56.484Z,3.60
2022-12-14T04:12:53.711Z,3.60
2022-12-14T04:15:44.326Z,3.60
2022-12-14T04:18:38.206Z,3.60
2022-12-14T04:21:15.789Z,3.60
2022-12-14T04:24:07.448Z,3.60
2022-12-14T04:26:40.635Z,3.60
2022-12-14T04:29:32.599Z,3.70
2022-12-14T04:32:23.268Z,3.70
2022-12-14T04:34:57.381Z,3.70
2022-12-14T04:37:25.895Z,3.70
2022-12-14T04:39:55.028Z,3.70
2022-12-14T04:42:45.160Z,3.70
2022-12-14T04:45:19.228Z,3.70
2022-12-14T04:47:51.351Z,3.70
2022-12-14T04:50:36.470Z,3.70
2022-12-14T04:53:11.005Z,3.70
2022-12-14T04:55:53.771Z,3.70
2022-12-14T04:58:27.269Z,3.70
2022-12-14T05:01:20.631Z,3.80
2022-12-14T05:04:12.577Z,3.80
2022-12-14T05:06:57.764Z,3.80
2022-12-14T05:09:30.226Z,3.80
2022-12-14T05:12:07.380Z,3.80
2022-12-14T05:14:44.051Z,3.80
2022-12-14T05:17:11.414Z,3.80
2022-12-14T05:19:45.467Z,3.90
2022-12-14T05:22:18.077Z,3.80
2022-12-14T05:24:44.898Z,3.80
2022-12-14T05:27:11.880Z,3.90
2022-12-14T05:29:38.938Z,3.80
2022-12-14T05:32:05.878Z,3.90
2022-12-14T05:34:32.702Z,3.90
2022-12-14T05:36:59.550Z,3.90
2022-12-14T05:39:26.350Z,3.80
2022-12-14T05:41:53.485Z,3.80
2022-12-14T05:44:20.409Z,3.80
2022-12-14T05:46:47.382Z,3.80
2022-12-14T05:49:14.299Z,3.80
2022-12-14T05:51:41.951Z,3.80
2022-12-14T05:54:08.953Z,3.80
2022-12-14T05:56:35.895Z,3.80
2022-12-14T05:59:02.881Z,3.80
2022-12-14T06:01:29.732Z,3.80
2022-12-14T06:03:56.772Z,3.70
2022-12-14T06:06:23.648Z,3.80
2022-12-14T06:08:50.589Z,3.70
2022-12-14T06:11:20.258Z,3.70
2022-12-14T06:13:48.033Z,3.70
2022-12-14T06:16:41.190Z,3.70
2022-12-14T06:19:08.717Z,3.70
2022-12-14T06:21:38.337Z,3.70
2022-12-14T06:24:06.278Z,3.70
2022-12-14T06:26:40.892Z,3.70
2022-12-14T06:29:15.895Z,3.70
2022-12-14T06:31:42.882Z,3.70
2022-12-14T06:34:11.238Z,3.70
2022-12-14T06:36:40.548Z,3.70
2022-12-14T06:39:11.569Z,3.70
2022-12-14T06:41:40.239Z,3.70
2022-12-14T06:44:10.254Z,3.70
2022-12-14T06:46:37.389Z,3.70
2022-12-14T06:49:05.955Z,3.70
2022-12-14T06:51:33.667Z,3.70
2022-12-14T06:54:00.499Z,3.70
2022-12-14T06:56:28.125Z,3.70
2022-12-14T06:58:56.005Z,3.60
2022-12-14T07:01:24.764Z,3.60
2022-12-14T07:03:54.680Z,3.60
2022-12-14T07:06:24.284Z,3.60
2022-12-14T07:08:56.682Z,3.60
2022-12-14T07:11:24.031Z,3.60
2022-12-14T07:13:51.087Z,3.60
2022-12-14T07:16:25.049Z,3.60
2022-12-14T07:18:53.775Z,3.60
2022-12-14T07:21:22.324Z,3.60
2022-12-14T07:23:51.901Z,3.60
2022-12-14T07:26:22.623Z,3.60
2022-12-14T07:28:50.963Z,3.50
2022-12-14T07:31:28.851Z,3.50
2022-12-14T07:33:58.473Z,3.50
2022-12-14T07:36:28.216Z,3.50
2022-12-14T07:38:55.896Z,3.50
2022-12-14T07:41:26.104Z,3.50
2022-12-14T07:43:54.594Z,3.50
2022-12-14T07:46:25.227Z,3.50
2022-12-14T07:48:54.425Z,3.50
2022-12-14T07:51:27.406Z,3.60
2022-12-14T07:53:55.016Z,3.50
2022-12-14T07:56:27.840Z,3.50
2022-12-14T07:58:56.393Z,3.60
2022-12-14T08:01:29.989Z,3.60
2022-12-14T08:04:00.454Z,3.60
2022-12-14T08:06:29.485Z,3.60
2022-12-14T08:08:57.238Z,3.60
2022-12-14T08:11:25.193Z,3.60
2022-12-14T08:14:01.376Z,3.60
2022-12-14T08:16:28.844Z,3.70
2022-12-14T08:18:57.370Z,3.70
2022-12-14T08:21:25.196Z,3.70
2022-12-14T08:23:53.264Z,3.70
2022-12-14T08:26:20.841Z,3.70
2022-12-14T08:28:48.623Z,3.70
2022-12-14T08:31:21.248Z,3.70
2022-12-14T08:33:49.298Z,3.80
2022-12-14T08:36:22.542Z,3.70
2022-12-14T08:38:57.241Z,3.80
2022-12-14T08:41:25.903Z,3.80
2022-12-14T08:43:58.895Z,3.80
2022-12-14T08:46:27.713Z,3.80
2022-12-14T08:48:56.311Z,3.70
2022-12-14T08:51:24.810Z,3.70
2022-12-14T08:53:53.029Z,3.70
2022-12-14T08:56:27.537Z,3.70
2022-12-14T08:58:55.513Z,3.70
2022-12-14T09:01:32.785Z,3.70
2022-12-14T09:04:08.757Z,3.70
2022-12-14T09:06:38.837Z,3.70
2022-12-14T09:09:15.262Z,3.70
2022-12-14T09:11:43.568Z,3.70
2022-12-14T09:14:11.098Z,3.80
2022-12-14T09:16:38.452Z,3.70
2022-12-14T09:19:06.013Z,3.80
2022-12-14T09:21:32.871Z,3.80
2022-12-14T09:24:00.157Z,3.70
2022-12-14T09:26:27.872Z,3.70
2022-12-14T09:28:56.307Z,3.70
2022-12-14T09:31:25.609Z,3.70
2022-12-14T09:33:52.912Z,3.70
2022-12-14T09:36:22.792Z,3.70
2022-12-14T09:38:52.244Z,3.70
2022-12-14T09:41:35.150Z,3.80
2022-12-14T09:44:18.741Z,3.70
2022-12-14T09:46:55.574Z,3.70
2022-12-14T09:49:29.636Z,3.70
2022-12-14T09:51:58.995Z,3.70
2022-12-14T09:54:29.915Z,3.70
2022-12-14T09:57:01.484Z,3.70
2022-12-14T09:59:30.196Z,3.70
2022-12-14T10:02:30.173Z,3.70
2022-12-14T10:05:33.012Z,3.70
2022-12-14T10:08:18.573Z,3.70
2022-12-14T10:11:15.701Z,3.70
2022-12-14T10:14:01.179Z,3.70
2022-12-14T10:16:47.044Z,3.70
2022-12-14T10:19:26.120Z,3.70
2022-12-14T10:22:01.892Z,3.60
2022-12-14T10:24:42.388Z,3.60
2022-12-14T10:27:14.176Z,3.60
2022-12-14T10:29:49.575Z,3.70
2022-12-14T10:32:21.546Z,3.70
2022-12-14T10:34:49.100Z,3.60
2022-12-14T10:37:36.432Z,3.60
2022-12-14T10:40:17.427Z,3.70
2022-12-14T10:43:04.931Z,3.70
2022-12-14T10:45:42.608Z,3.70
2022-12-14T10:48:28.286Z,3.70
2022-12-14T10:51:10.616Z,3.60
2022-12-14T10:53:51.649Z,3.60
2022-12-14T10:56:31.633Z,3.60
2022-12-14T10:59:26.557Z,3.60
2022-12-14T11:01:57.520Z,3.60
2022-12-14T11:04:33.881Z,3.60
2022-12-14T11:07:04.668Z,3.60
2022-12-14T11:09:32.186Z,3.60
2022-12-14T11:12:03.926Z,3.60
2022-12-14T11:14:31.303Z,3.60
2022-12-14T11:16:58.268Z,3.60
2022-12-14T11:19:29.883Z,3.60
2022-12-14T11:22:21.741Z,3.70
2022-12-14T11:24:49.206Z,3.70
2022-12-14T11:27:21.048Z,3.70
2022-12-14T11:29:50.153Z,3.70
2022-12-14T11:32:24.078Z,3.70
2022-12-14T11:34:57.555Z,3.70
2022-12-14T11:37:27.272Z,3.80
2022-12-14T11:39:57.708Z,3.80
2022-12-14T11:42:25.359Z,3.80
2022-12-14T11:44:53.670Z,3.80
2022-12-14T11:47:26.312Z,3.80
2022-12-14T11:49:55.405Z,3.80
2022-12-14T11:52:36.987Z,3.80
2022-12-14T11:55:23.034Z,3.80
2022-12-14T11:57:57.192Z,3.80
2022-12-14T12:00:30.814Z,3.90
2022-12-14T12:03:13.837Z,3.90
2022-12-14T12:05:43.348Z,3.90
2022-12-14T12:08:26.940Z,3.90
2022-12-14T12:11:01.974Z,3.90
2022-12-14T12:13:38.335Z,3.90
2022-12-14T12:16:09.983Z,3.90
2022-12-14T12:18:48.624Z,3.90
2022-12-14T12:21:33.395Z,3.90
2022-12-14T12:24:12.231Z,3.90
2022-12-14T12:26:59.975Z,3.90
2022-12-14T12:29:59.311Z,3.90
2022-12-14T12:32:43.585Z,3.90
2022-12-14T12:35:22.351Z,4.00
2022-12-14T12:38:09.838Z,4.00
2022-12-14T12:41:00.623Z,4.00
2022-12-14T12:43:33.990Z,3.90
2022-12-14T12:46:06.358Z,4.00
2022-12-14T12:48:49.414Z,4.00
2022-12-14T12:51:29.264Z,4.00
2022-12-14T12:54:06.653Z,4.00
2022-12-14T12:56:48.221Z,4.00
2022-12-14T12:59:33.340Z,4.00
2022-12-14T13:02:26.802Z,4.00
2022-12-14T13:04:54.988Z,4.00
2022-12-14T13:07:57.578Z,4.00
2022-12-14T13:10:30.189Z,4.00
2022-12-14T13:13:09.839Z,4.00
2022-12-14T13:15:41.590Z,4.10
2022-12-14T13:18:56.564Z,4.10
2022-12-14T13:21:32.844Z,4.10
2022-12-14T13:23:59.867Z,4.10
2022-12-14T13:26:57.848Z,4.10
2022-12-14T13:29:45.951Z,4.10
2022-12-14T13:32:29.876Z,4.10
2022-12-14T13:35:12.526Z,4.20
2022-12-14T13:38:07.046Z,4.20
2022-12-14T13:41:01.695Z,4.20
2022-12-14T13:43:31.188Z,4.20
2022-12-14T13:46:07.015Z,4.20
2022-12-14T13:48:39.801Z,4.20
2022-12-14T13:51:08.611Z,4.20
2022-12-14T13:53:43.623Z,4.20
2022-12-14T13:56:29.271Z,4.20
2022-12-14T13:59:01.237Z,4.20
2022-12-14T14:01:46.671Z,4.20
2022-12-14T14:04:16.705Z,4.20
2022-12-14T14:06:44.894Z,4.20
2022-12-14T14:09:27.156Z,4.20
2022-12-14T14:12:15.237Z,4.20
2022-12-14T14:15:22.672Z,4.30
2022-12-14T14:17:54.836Z,4.30
2022-12-14T14:20:44.921Z,4.30
2022-12-14T14:23:14.647Z,4.30
2022-12-14T14:25:51.841Z,4.30
2022-12-14T14:28:23.151Z,4.30
2022-12-14T14:30:56.658Z,4.30
2022-12-14T14:33:47.356Z,4.30
2022-12-14T14:36:36.885Z,4.30
2022-12-14T14:39:54.829Z,4.30
2022-12-14T14:42:25.179Z,4.30
2022-12-14T14:44:56.708Z,4.30
2022-12-14T14:47:34.559Z,4.40
2022-12-14T14:50:16.716Z,4.40
2022-12-14T14:52:43.533Z,4.30
2022-12-14T14:55:52.151Z,4.30
2022-12-14T14:58:26.713Z,4.30
2022-12-14T15:01:11.979Z,4.30
2022-12-14T15:04:06.354Z,4.30
2022-12-14T15:06:40.832Z,4.30
2022-12-14T15:09:32.437Z,4.30
2022-12-14T15:12:04.431Z,4.30
2022-12-14T15:14:43.360Z,4.30
2022-12-14T15:17:15.165Z,4.30
2022-12-14T15:19:52.397Z,4.40
2022-12-14T15:22:22.504Z,4.40
2022-12-14T15:24:52.881Z,4.40
2022-12-14T15:27:39.291Z,4.40
2022-12-14T15:30:12.333Z,4.40
2022-12-14T15:32:47.413Z,4.40
2022-12-14T15:35:17.566Z,4.40
2022-12-14T15:38:14.307Z,4.40
2022-12-14T15:40:41.321Z,4.40
2022-12-14T15:43:20.213Z,4.40
2022-12-14T15:45:50.399Z,4.40
2022-12-14T15:48:27.711Z,4.40
2022-12-14T15:50:58.721Z,4.40
2022-12-14T15:53:38.078Z,4.40
2022-12-14T15:56:46.226Z,4.50
2022-12-14T15:59:17.578Z,4.50
2022-12-14T16:01:53.524Z,4.50
2022-12-14T16:04:25.917Z,4.50
2022-12-14T16:07:03.027Z,4.50
2022-12-14T16:09:37.953Z,4.50
2022-12-14T16:12:07.257Z,4.50
2022-12-14T16:14:45.350Z,4.40
2022-12-14T16:17:15.654Z,4.50
2022-12-14T16:19:59.609Z,4.50
2022-12-14T16:22:32.446Z,4.50
2022-12-14T16:25:08.472Z,4.50
2022-12-14T16:27:41.701Z,4.50
2022-12-14T16:30:22.832Z,4.50
2022-12-14T16:32:52.953Z,4.50
2022-12-14T16:35:24.808Z,4.50
2022-12-14T16:37:54.262Z,4.50
2022-12-14T16:40:37.746Z,4.50
2022-12-14T16:43:06.942Z,4.50
2022-12-14T16:45:39.574Z,4.50
2022-12-14T16:48:08.376Z,4.50
2022-12-14T16:53:24.408Z,4.50
2022-12-14T16:56:18.418Z,4.50
2022-12-14T16:58:53.487Z,4.50
2022-12-14T17:01:20.930Z,4.50
2022-12-14T17:03:59.078Z,4.60
2022-12-14T17:06:49.665Z,4.50
2022-12-14T17:09:25.883Z,4.60
2022-12-14T17:11:57.380Z,4.60
2022-12-14T17:14:24.244Z,4.60
2022-12-14T17:17:01.908Z,4.50
2022-12-14T17:19:35.679Z,4.50
2022-12-14T17:22:06.476Z,4.60
2022-12-14T17:24:36.990Z,4.60
2022-12-14T17:27:04.376Z,4.60
2022-12-14T17:29:33.342Z,4.60
2022-12-14T17:32:02.834Z,4.50
2022-12-14T17:34:30.626Z,4.50
2022-12-14T17:36:57.620Z,4.50
2022-12-14T17:39:25.000Z,4.50
2022-12-14T17:41:52.269Z,4.50
2022-12-14T17:44:20.666Z,4.50
2022-12-14T17:46:49.885Z,4.50
2022-12-14T17:49:33.739Z,4.50
2022-12-14T17:52:04.199Z,4.50
2022-12-14T17:54:32.251Z,4.40
2022-12-14T17:56:59.918Z,4.40
2022-12-14T17:59:26.882Z,4.40
2022-12-14T18:01:53.824Z,4.40
2022-12-14T18:04:20.774Z,4.40
2022-12-14T18:06:47.659Z,4.30
2022-12-14T18:09:16.092Z,4.40
2022-12-14T18:12:00.563Z,4.40
2022-12-14T18:14:29.713Z,4.30
2022-12-14T18:17:00.885Z,4.30
2022-12-14T18:19:29.779Z,4.30
2022-12-14T18:21:56.693Z,4.30
2022-12-14T18:24:26.052Z,4.20
2022-12-14T18:26:53.209Z,4.20
2022-12-14T18:29:20.676Z,4.20
2022-12-14T18:31:49.691Z,4.20
2022-12-14T18:34:17.210Z,4.10
2022-12-14T18:36:44.135Z,4.10
2022-12-14T18:39:11.002Z,4.10
2022-12-14T18:41:37.896Z,4.00
2022-12-14T18:44:04.964Z,4.00
2022-12-14T18:46:32.378Z,4.00
2022-12-14T18:49:00.004Z,3.90
2022-12-14T18:51:27.427Z,3.90
2022-12-14T18:53:56.214Z,3.90
2022-12-14T18:56:25.634Z,3.80
2022-12-14T18:58:53.489Z,3.80
2022-12-14T19:01:22.766Z,3.80
2022-12-14T19:03:50.553Z,3.80
2022-12-14T19:09:09.544Z,3.70
2022-12-14T19:11:42.049Z,3.70
2022-12-14T19:14:10.103Z,3.70
2022-12-14T19:16:37.606Z,3.70
2022-12-14T19:19:04.806Z,3.60
2022-12-14T19:21:31.799Z,3.70
2022-12-14T19:24:00.746Z,3.60
2022-12-14T19:26:28.793Z,3.60
2022-12-14T19:28:56.129Z,3.60
2022-12-14T19:31:23.414Z,3.60
2022-12-14T19:33:50.431Z,3.50
2022-12-14T19:36:17.398Z,3.50
2022-12-14T19:38:44.925Z,3.50
2022-12-14T19:41:17.901Z,3.40
2022-12-14T19:43:44.867Z,3.40
2022-12-14T19:46:13.687Z,3.40
2022-12-14T19:48:42.224Z,3.40
2022-12-14T19:51:11.348Z,3.30
2022-12-14T19:53:40.438Z,3.30
2022-12-14T19:56:07.455Z,3.30
2022-12-14T19:58:34.741Z,3.30
2022-12-14T20:01:02.050Z,3.30
2022-12-14T20:03:29.561Z,3.20
2022-12-14T20:05:59.344Z,3.20
2022-12-14T20:08:30.783Z,3.20
2022-12-14T20:10:59.011Z,3.20
2022-12-14T20:13:28.227Z,3.20
2022-12-14T20:15:58.924Z,3.10
2022-12-14T20:18:28.028Z,3.10
2022-12-14T20:21:02.714Z,3.10
2022-12-14T20:23:29.965Z,3.10
2022-12-14T20:26:01.194Z,3.10
2022-12-14T20:28:28.064Z,3.10
2022-12-14T20:30:55.815Z,3.10
2022-12-14T20:33:28.013Z,3.00
2022-12-14T20:35:56.712Z,3.00
2022-12-14T20:38:23.681Z,3.00
2022-12-14T20:40:50.624Z,3.00
2022-12-14T20:43:17.612Z,2.90
2022-12-14T20:45:44.567Z,2.90
2022-12-14T20:48:11.594Z,2.80
2022-12-14T20:50:40.271Z,2.80
2022-12-14T20:53:07.374Z,2.80
2022-12-14T20:55:35.159Z,2.80
2022-12-14T20:58:02.000Z,2.80
2022-12-14T21:00:29.349Z,2.70
2022-12-14T21:02:56.415Z,2.70
2022-12-14T21:05:23.388Z,2.70
2022-12-14T21:07:50.315Z,2.70
2022-12-14T21:10:17.332Z,2.70
2022-12-14T21:12:47.068Z,2.70
2022-12-14T21:15:14.309Z,2.70
2022-12-14T21:17:41.197Z,2.70
2022-12-14T21:20:08.401Z,2.70
2022-12-14T21:22:35.366Z,2.60
2022-12-14T21:25:04.364Z,2.60
2022-12-14T21:27:33.079Z,2.60
2022-12-14T21:30:00.515Z,2.60
2022-12-14T21:32:28.281Z,2.60
2022-12-14T21:34:55.378Z,2.60
2022-12-14T21:37:22.242Z,2.60
2022-12-14T21:39:55.020Z,2.60
2022-12-14T21:42:26.038Z,2.60
2022-12-14T21:44:54.018Z,2.50
2022-12-14T21:47:29.397Z,2.60
2022-12-14T21:49:56.775Z,2.60
2022-12-14T21:52:26.752Z,2.60
2022-12-14T21:54:53.802Z,2.50
2022-12-14T21:57:50.542Z,2.50
2022-12-14T22:00:18.647Z,2.50
2022-12-14T22:02:45.641Z,2.50
2022-12-14T22:05:13.142Z,2.50
2022-12-14T22:07:40.101Z,2.50
2022-12-14T22:10:08.228Z,2.50
2022-12-14T22:12:35.227Z,2.50
2022-12-14T22:15:02.029Z,2.50
2022-12-14T22:17:28.845Z,2.50
2022-12-14T22:19:55.875Z,2.50
2022-12-14T22:22:23.007Z,2.50
2022-12-14T22:24:51.292Z,2.50
2022-12-14T22:27:19.548Z,2.50
2022-12-14T22:29:46.750Z,2.50
2022-12-14T22:32:14.651Z,2.50
2022-12-14T22:34:41.676Z,2.40
2022-12-14T22:37:08.524Z,2.50
2022-12-14T22:39:35.546Z,2.50
2022-12-14T22:42:02.512Z,2.50
2022-12-14T22:44:29.469Z,2.50
2022-12-14T22:46:56.301Z,2.50
2022-12-14T22:49:23.962Z,2.50
2022-12-14T22:51:50.793Z,2.50
2022-12-14T22:54:23.084Z,2.50
2022-12-14T22:57:02.330Z,2.60
2022-12-14T22:59:47.844Z,2.60
2022-12-14T23:02:14.964Z,2.60
2022-12-14T23:04:41.998Z,2.60
2022-12-14T23:07:08.884Z,2.60
2022-12-14T23:09:54.508Z,2.60
2022-12-14T23:12:40.389Z,2.60
2022-12-14T23:15:25.966Z,2.60
2022-12-14T23:18:20.482Z,2.60
2022-12-14T23:21:06.006Z,2.60
2022-12-14T23:23:51.401Z,2.60
2022-12-14T23:26:37.311Z,2.60
2022-12-14T23:29:22.612Z,2.60
2022-12-14T23:32:07.920Z,2.60
2022-12-14T23:34:53.327Z,2.50
2022-12-14T23:37:38.776Z,2.60
2022-12-14T23:40:25.019Z,2.50
2022-12-14T23:43:10.410Z,2.50
2022-12-14T23:45:56.039Z,2.50
2022-12-14T23:48:41.381Z,2.40
2022-12-14T23:51:27.143Z,2.40
2022-12-14T23:54:12.770Z,2.40
2022-12-14T23:56:58.156Z,2.50
2022-12-14T23:59:43.634Z,2.50
